Flight Track Log - Related Links

Times and Time Zones

All times are in EDT time to prevent confusion due to time zone crossing. See the N668DN flight status page for this flight to view local times or setup timezone preferences in your user account.

Time Position Orientation Groundspeed Altitude Reporting Facility
EDT Latitude Longitude Course Direction KTS MPH feet Rate Location/Type
Thu 03:05:45 PM 33.4333 -112.0333 67° East 165 190 2,000  Level Phoenix TRACON
Thu 03:06:09 PM 33.4333 -112.0500 270° West 175 201 2,800 1,933 Climbing Phoenix TRACON
Thu 03:07:15 PM 33.4500 -112.1333 284° West 254 292 4,900 2,381 Climbing Phoenix TRACON
Thu 03:08:00 PM 33.5887 -111.5645 69° East  Level FlightAware Approximate
Thu 03:08:15 PM 33.5167 -112.1333 360° North 284 327 7,800  Level Phoenix TRACON
Thu 03:09:00 PM 33.6360 -111.4159 69° East  Level FlightAware Approximate
Thu 03:09:24 PM 33.5694 -112.0531 52° Northeast 316 364 10,700  Level Albuquerque Center
Thu 03:10:00 PM 33.6832 -111.2672 69° East  Level FlightAware Approximate
Thu 03:10:26 PM 33.5861 -111.9378 80° East 354 407 12,900  Level Albuquerque Center
Thu 03:11:00 PM 33.7346 -111.1205 67° East  Level FlightAware Approximate
Thu 03:11:28 PM 33.6050 -111.8167 79° East 370 426 15,600  Level Albuquerque Center
Thu 03:12:30 PM 33.6242 -111.6917 80° East 384 442 17,600 1,790 Climbing Albuquerque Center
Thu 03:13:32 PM 33.6450 -111.5561 80° East 413 475 19,300 1,839 Climbing Albuquerque Center
Thu 03:14:34 PM 33.6711 -111.3811 80° East 448 516 21,400 1,677 Climbing Albuquerque Center
Thu 03:16:00 PM 33.7208 -111.1600 67° East  Level FlightAware Approximate
Thu 03:16:38 PM 33.7550 -111.0783 67° East 493 567 24,500  Level Albuquerque Center
Thu 03:17:40 PM 33.8097 -110.9236 67° East 503 579 26,000 1,500 Climbing Albuquerque Center
Thu 03:18:42 PM 33.8667 -110.7639 67° East 516 594 27,600 1,548 Climbing Albuquerque Center
Thu 03:19:44 PM 33.9353 -110.5689 67° East 526 605 29,200 1,403 Climbing Albuquerque Center
Thu 03:20:46 PM 33.9928 -110.4033 67° East 534 615 30,500 1,161 Climbing Albuquerque Center
Thu 03:21:48 PM 34.0569 -110.2208 67° East 545 627 31,600 1,113 Climbing Albuquerque Center
Thu 03:22:50 PM 34.1189 -110.0411 67° East 553 636 32,800 1,306 Climbing Albuquerque Center
Thu 03:23:52 PM 34.1750 -109.8789 67° East 551 634 34,300 1,065 Climbing Albuquerque Center
Thu 03:24:54 PM 34.2383 -109.6908 68° East 546 628 35,000 339 Climbing Albuquerque Center
Thu 03:25:56 PM 34.2925 -109.5339 67° East 535 616 35,000  Level Albuquerque Center
Thu 03:26:58 PM 34.3550 -109.3486 68° East 533 613 35,000  Level Albuquerque Center
Thu 03:28:00 PM 34.4086 -109.1914 68° East 531 611 35,000  Level Albuquerque Center
Thu 03:29:02 PM 34.4639 -109.0036 70° East 531 611 35,000  Level Albuquerque Center
Thu 03:30:04 PM 34.5083 -108.8408 72° East 531 611 35,000  Level Albuquerque Center
Thu 03:31:06 PM 34.5606 -108.6519 71° East 531 611 35,000  Level Albuquerque Center
Thu 03:32:09 PM 34.6053 -108.4892 71° East 531 611 35,000  Level Albuquerque Center
Thu 03:33:11 PM 34.6494 -108.3217 72° East 531 611 35,000  Level Albuquerque Center
Thu 03:34:13 PM 34.6956 -108.1506 72° East 533 613 35,000  Level Albuquerque Center
Thu 03:35:15 PM 34.7414 -107.9797 72° East 533 613 35,000  Level Albuquerque Center
Thu 03:36:17 PM 34.7961 -107.7761 72° East 529 609 35,000  Level Albuquerque Center
Thu 03:37:19 PM 34.8403 -107.6047 73° East 532 612 35,000  Level Albuquerque Center
Thu 03:38:21 PM 34.8853 -107.4342 72° East 530 610 35,000  Level Albuquerque Center
Thu 03:39:23 PM 34.9300 -107.2619 72° East 533 613 35,000  Level Albuquerque Center
Thu 03:40:25 PM 34.9800 -107.0719 72° East 534 615 35,000  Level Albuquerque Center
Thu 03:41:27 PM 35.0211 -106.9067 73° East 533 613 35,000  Level Albuquerque Center
Thu 03:42:29 PM 35.0900 -106.7267 65° Northeast 533 613 35,000  Level Albuquerque Center
Thu 03:43:31 PM 35.1672 -106.5803 57° Northeast 536 617 35,000  Level Albuquerque Center
Thu 03:44:33 PM 35.2417 -106.4306 59° Northeast 534 615 35,000  Level Albuquerque Center
Thu 03:46:00 PM 35.3434 -106.2233 59° Northeast  Level FlightAware Approximate
Thu 03:46:37 PM 35.4131 -106.0969 59° Northeast 528 608 35,000  Level Albuquerque Center
Thu 03:47:39 PM 35.4903 -105.9431 58° Northeast 531 611 35,000  Level Albuquerque Center
Thu 03:48:41 PM 35.5717 -105.7792 59° Northeast 527 606 35,000  Level Albuquerque Center
Thu 03:49:43 PM 35.6450 -105.6356 58° Northeast 531 611 35,000  Level Albuquerque Center
Thu 03:50:46 PM 35.7275 -105.4650 59° Northeast 531 611 35,000  Level Albuquerque Center
Thu 03:51:48 PM 35.8050 -105.3094 58° Northeast 528 608 35,000  Level Albuquerque Center
Thu 03:52:50 PM 35.8797 -105.1542 59° Northeast 524 603 35,000  Level Albuquerque Center
Thu 03:53:52 PM 35.9719 -104.9678 59° Northeast 532 612 35,000  Level Albuquerque Center
Thu 03:54:54 PM 36.0472 -104.8119 59° Northeast 526 605 35,000  Level Albuquerque Center
Thu 03:55:56 PM 36.1239 -104.6544 59° Northeast 525 604 35,000  Level Albuquerque Center
Thu 03:56:58 PM 36.2008 -104.4964 59° Northeast 529 609 35,000  Level Albuquerque Center
Thu 03:58:00 PM 36.2764 -104.3392 59° Northeast 527 606 35,000  Level Albuquerque Center
Thu 03:59:02 PM 36.3525 -104.1803 59° Northeast 529 609 35,000  Level Albuquerque Center
Thu 04:00:04 PM 36.4286 -104.0228 59° Northeast 528 608 35,000  Level Albuquerque Center
Thu 04:01:06 PM 36.5039 -103.8639 59° Northeast 528 608 35,000  Level Albuquerque Center
Thu 04:02:08 PM 36.5908 -103.6786 60° Northeast 527 606 35,000  Level Albuquerque Center
Thu 04:03:10 PM 36.6583 -103.5372 59° Northeast 526 605 35,000  Level Albuquerque Center
Thu 04:04:12 PM 36.7403 -103.3619 60° Northeast 525 604 35,000  Level Albuquerque Center
Thu 04:05:14 PM 36.8092 -103.2114 60° Northeast 525 604 35,000  Level Albuquerque Center
Thu 04:06:17 PM 36.8903 -103.0372 60° Northeast 522 601 35,000  Level Albuquerque Center
Thu 04:07:19 PM 36.9589 -102.8861 60° Northeast 523 602 35,000  Level Albuquerque Center
Thu 04:08:33 PM 37.0522 -102.6856 60° Northeast 524 603 35,000  Level Albuquerque Center
Thu 04:09:35 PM 37.1317 -102.5106 60° Northeast 520 598 35,000  Level Albuquerque Center
Thu 04:10:37 PM 37.2006 -102.3597 60° Northeast 520 598 35,000  Level Albuquerque Center
Thu 04:11:39 PM 37.2797 -102.1831 61° Northeast 521 600 35,000  Level Albuquerque Center
Thu 04:12:41 PM 37.3428 -102.0397 61° Northeast 523 602 35,000  Level Albuquerque Center
Thu 04:13:43 PM 37.4231 -101.8608 60° Northeast 525 604 35,000  Level Albuquerque Center
Thu 04:15:00 PM 37.5144 -101.6533 61° Northeast 529 609 35,000  Level Kansas City Center
Thu 04:16:01 PM 37.5819 -101.4975 61° Northeast 529 609 35,000  Level Kansas City Center
Thu 04:17:04 PM 37.6508 -101.3414 61° Northeast 530 610 35,000  Level Kansas City Center
Thu 04:18:05 PM 37.7336 -101.1528 61° Northeast 530 610 35,000  Level Kansas City Center
Thu 04:19:09 PM 37.8006 -100.9994 61° Northeast 532 612 35,000  Level Kansas City Center
Thu 04:20:09 PM 37.8819 -100.8128 61° Northeast 533 613 35,000  Level Kansas City Center
Thu 04:21:10 PM 37.9456 -100.6503 64° Northeast 534 615 35,000 48 Level Kansas City Center
Thu 04:22:14 PM 38.0017 -100.4836 67° East 534 615 35,100 624 Climbing Kansas City Center
Thu 04:23:15 PM 38.0661 -100.2897 67° East 534 615 36,300 919 Climbing Kansas City Center
Thu 04:24:18 PM 38.1222 -100.1247 67° East 533 613 37,000 341 Climbing Kansas City Center
Thu 04:25:18 PM 38.1861 -99.9297 67° East 534 615 37,000  Level Kansas City Center
Thu 04:26:23 PM 38.2417 -99.7633 67° East 535 616 37,000  Level Kansas City Center
Thu 04:27:24 PM 38.3083 -99.5683 66° East 537 618 37,000  Level Kansas City Center
Thu 04:28:25 PM 38.3594 -99.4194 66° East 536 617 37,000  Level Kansas City Center
Thu 04:29:29 PM 38.4306 -99.2094 67° East 536 617 37,000  Level Kansas City Center
Thu 04:30:30 PM 38.4892 -99.0356 67° East 534 615 37,000  Level Kansas City Center
Thu 04:31:31 PM 38.5486 -98.8617 66° East 532 612 37,000  Level Kansas City Center
Thu 04:32:35 PM 38.6078 -98.6853 67° East 536 617 37,000  Level Kansas City Center
Thu 04:33:35 PM 38.6647 -98.5114 67° East 530 610 37,000  Level Kansas City Center
Thu 04:34:38 PM 38.7217 -98.3369 67° East 528 608 37,000  Level Kansas City Center
Thu 04:35:40 PM 38.7794 -98.1625 67° East 529 609 37,000  Level Kansas City Center
Thu 04:36:41 PM 38.8475 -97.9522 67° East 531 611 37,000  Level Kansas City Center
Thu 04:37:45 PM 38.9028 -97.7817 67° East 529 609 37,000  Level Kansas City Center
Thu 04:38:45 PM 38.9572 -97.6128 67° East 534 615 37,000  Level Kansas City Center
Thu 04:39:47 PM 39.0194 -97.4158 68° East 532 612 37,000  Level Kansas City Center
Thu 04:40:51 PM 39.0728 -97.2469 68° East 533 613 37,000  Level Kansas City Center
Thu 04:41:54 PM 39.1350 -97.0497 68° East 532 612 37,000  Level Kansas City Center
Thu 04:42:54 PM 39.1878 -96.8811 68° East 532 612 37,000  Level Kansas City Center
Thu 04:43:55 PM 39.2503 -96.6819 68° East 534 615 37,000  Level Kansas City Center
Thu 04:45:00 PM 39.3011 -96.5106 69° East 533 613 37,000  Level Kansas City Center
Thu 04:46:01 PM 39.3589 -96.3231 68° East 534 615 37,000  Level Kansas City Center
Thu 04:47:02 PM 39.4133 -96.1414 69° East 531 611 37,000  Level Kansas City Center
Thu 04:48:05 PM 39.4728 -95.9428 69° East 530 610 37,000  Level Kansas City Center
Thu 04:49:07 PM 39.5239 -95.7714 69° East 529 609 37,000  Level Kansas City Center
Thu 04:51:10 PM 39.6339 -95.4006 69° East 528 608 37,000  Level Kansas City Center
Thu 04:52:14 PM 39.6836 -95.2300 69° East 525 604 37,000  Level Kansas City Center
Thu 04:53:15 PM 39.7403 -95.0331 69° East 520 598 37,000  Level Kansas City Center
Thu 04:54:18 PM 39.7892 -94.8642 69° East 519 597 37,000  Level Kansas City Center
Thu 04:55:19 PM 39.8461 -94.6672 69° East 520 598 37,000  Level Kansas City Center
Thu 04:56:22 PM 39.8950 -94.4986 69° East 519 597 37,000  Level Kansas City Center
Thu 04:57:23 PM 39.9506 -94.3008 70° East 519 597 37,000  Level Kansas City Center
Thu 04:58:27 PM 39.9978 -94.1319 70° East 518 596 37,000  Level Kansas City Center
Thu 04:59:28 PM 40.0450 -93.9567 71° East 526 605 37,000  Level Kansas City Center
Thu 05:01:33 PM 40.1411 -93.6058 70° East 517 595 37,000  Level Kansas City Center
Thu 05:02:33 PM 40.1994 -93.3944 70° East 518 596 37,000  Level Kansas City Center
Thu 05:03:34 PM 40.2467 -93.2194 70° East 514 592 37,000  Level Kansas City Center
Thu 05:04:38 PM 40.2989 -93.0289 70° East 516 594 37,000  Level Kansas City Center
Thu 05:05:42 PM 40.3447 -92.8614 70° East 512 589 37,000  Level Kansas City Center
Thu 05:06:42 PM 40.3983 -92.6644 70° East 514 592 37,000  Level Kansas City Center
Thu 05:07:43 PM 40.4442 -92.4861 71° East 515 593 37,000  Level Kansas City Center
Thu 05:08:47 PM 40.4856 -92.3286 71° East 511 588 37,000  Level Kansas City Center
Thu 05:09:48 PM 40.5406 -92.1153 71° East 514 592 37,000  Level Kansas City Center
Thu 05:10:49 PM 40.5869 -91.9372 71° East 517 595 37,000  Level Kansas City Center
Thu 05:11:53 PM 40.6319 -91.7575 72° East 519 597 37,000  Level Kansas City Center
Thu 05:12:54 PM 40.6775 -91.5775 71° East 521 600 37,000  Level Kansas City Center
Thu 05:13:55 PM 40.7228 -91.3978 72° East 521 600 37,000  Level Kansas City Center
Thu 05:14:59 PM 40.7739 -91.1931 72° East 520 598 37,000  Level Kansas City Center
Thu 05:15:59 PM 40.8192 -91.0111 72° East 520 598 37,000  Level Kansas City Center
Thu 05:17:01 PM 40.8639 -90.8297 72° East 519 597 37,000  Level Kansas City Center
Thu 05:18:05 PM 40.9081 -90.6478 72° East 519 597 37,000  Level Kansas City Center
Thu 05:19:14 PM 40.9608 -90.4311 72° East 513 590 37,000  Level Chicago Center
Thu 05:20:16 PM 41.0050 -90.2486 72° East 516 594 37,000  Level Chicago Center
Thu 05:21:18 PM 41.0486 -90.0667 72° East 514 592 37,000  Level Chicago Center
Thu 05:22:20 PM 41.0992 -89.8469 73° East 513 590 37,000  Level Chicago Center
Thu 05:23:22 PM 41.1428 -89.6667 72° East 511 588 37,000  Level Chicago Center
Thu 05:24:24 PM 41.1917 -89.4889 70° East 510 587 37,000  Level Chicago Center
Thu 05:25:26 PM 41.2447 -89.3164 68° East 505 581 37,000  Level Chicago Center
Thu 05:26:29 PM 41.3022 -89.1283 68° East 502 578 37,000  Level Chicago Center
Thu 05:27:31 PM 41.3536 -88.9581 68° East 499 574 37,000  Level Chicago Center
Thu 05:28:33 PM 41.4058 -88.7883 68° East 496 571 37,000  Level Chicago Center
Thu 05:29:35 PM 41.4561 -88.6189 68° East 492 566 37,000  Level Chicago Center
Thu 05:30:37 PM 41.5064 -88.4497 68° East 491 565 37,000  Level Chicago Center
Thu 05:31:39 PM 41.5558 -88.2417 72° East 494 568 37,000  Level Chicago Center
Thu 05:32:41 PM 41.5775 -88.0531 81° East 504 580 37,000  Level Chicago Center
Thu 05:33:43 PM 41.5997 -87.8653 81° East 506 582 37,000  Level Chicago Center
Thu 05:34:45 PM 41.6208 -87.6806 81° East 502 578 37,000  Level Chicago Center
Thu 05:35:47 PM 41.6414 -87.4975 81° East 499 574 37,000 -823 Level Chicago Center
Thu 05:36:49 PM 41.6619 -87.3139 81° East 501 577 35,300 -1,694 Descending Chicago Center
Thu 05:37:51 PM 41.6822 -87.1364 81° East 487 560 33,500 -1,488 Descending Chicago Center
Thu 05:38:54 PM 41.7050 -86.9275 82° East 476 548 32,200 -1,104 Descending Chicago Center
Thu 05:39:56 PM 41.7225 -86.7539 82° East 473 544 31,200 -871 Descending Chicago Center
Thu 05:40:58 PM 41.7400 -86.5964 81° East 467 537 30,400 -823 Descending Chicago Center
Thu 05:42:00 PM 41.7572 -86.4289 82° East 457 526 29,500 -968 Descending Chicago Center
Thu 05:43:02 PM 41.7833 -86.2378 80° East 437 503 28,400 -968 Descending Chicago Center
Thu 05:44:04 PM 41.8142 -86.0861 75° East 423 487 27,500 -968 Descending Chicago Center
Thu 05:45:06 PM 41.8433 -85.9353 75° East 420 483 26,400 -968 Descending Chicago Center
Thu 05:46:08 PM 41.8719 -85.7875 75° East 410 472 25,500 -919 Descending Chicago Center
Thu 05:47:10 PM 41.9000 -85.6386 76° East 409 471 24,500 -1,016 Descending Chicago Center
Thu 05:48:12 PM 41.9281 -85.4897 76° East 408 470 23,400 -1,258 Descending Chicago Center
Thu 05:49:14 PM 41.9261 -85.3367 91° East 413 475 21,900 -1,535 Descending Chicago Center
Thu 05:49:38 PM 41.9172 -85.2494 98° East 409 471 21,200 -1,571 Descending Cleveland Center
Thu 05:50:38 PM 41.8994 -85.1200 100° East 404 465 19,700 -1,100 Descending Cleveland Center
Thu 05:51:38 PM 41.8758 -84.9731 102° East 399 459 19,000 -350 Descending Cleveland Center
Thu 05:52:38 PM 41.8583 -84.8297 99° East 392 451 19,000  Level Cleveland Center
Thu 05:53:38 PM 41.8578 -84.6736 90° East 402 463 19,000 -700 Level Cleveland Center
Thu 05:54:38 PM 41.8508 -84.5169 93° East 415 478 17,600 -1,750 Descending Cleveland Center
Thu 05:55:38 PM 41.8433 -84.3658 94° East 420 483 15,500 -2,220 Descending Cleveland Center
Thu 05:56:18 PM 41.8367 -84.2539 95° East 400 460 13,900 -2,200 Descending Cleveland Center
Thu 05:56:38 PM 41.8319 -84.2006 97° East 409 471 13,300 -1,839 Descending Cleveland Center
Thu 05:57:20 PM 41.8289 -84.1028 92° East 390 449 12,000 -1,300 Descending Cleveland Center
Thu 05:57:38 PM 41.8281 -84.0583 91° East 398 458 12,000 98 Level Cleveland Center
Thu 05:58:21 PM 41.8619 -83.9736 62° Northeast 361 415 12,100  Climbing Cleveland Center
Thu 05:58:39 PM 41.8772 -83.9439 55° Northeast 350 403 12,000  Descending Cleveland Center
Thu 05:59:22 PM 41.9275 -83.8683 48° Northeast 360 414 12,100 102 Climbing Cleveland Center
Thu 05:59:38 PM 41.9408 -83.8411 57° Northeast 345 397 12,100  Level Cleveland Center
Thu 06:00:23 PM 41.9889 -83.7653 50° Northeast 359 413 12,100  Level Cleveland Center
Thu 06:00:38 PM 42.0022 -83.7353 59° Northeast 350 403 12,100  Level Cleveland Center
Thu 06:01:24 PM 42.0564 -83.6539 48° Northeast 359 413 12,100  Level Cleveland Center
Thu 06:02:25 PM 42.1289 -83.5903 33° Northeast 288 331 12,100  Level Cleveland Center
Thu 06:03:26 PM 42.1931 -83.5372 31° Northeast 268 308 12,100 -632 Level Cleveland Center
Thu 06:04:38 PM 42.2650 -83.4928 25° Northeast 259 298 10,700 -1,610 Descending Cleveland Center
Thu 06:05:29 PM 42.3303 -83.4650 17° North 255 293 8,800 -2,036 Descending Cleveland Center
Thu 06:06:30 PM 42.3919 -83.4172 30° Northeast 252 290 6,900 -1,770 Descending Cleveland Center
Thu 06:07:31 PM 42.4311 -83.3458 53° Northeast 261 300 5,200 -1,426 Descending Cleveland Center
Thu 06:08:32 PM 42.3806 -83.2789 136° Southeast 246 283 4,000 -1,180 Descending Cleveland Center

Login

Don't have an account? Register now (free) for customized features, flight alerts, and more!